Time;durP1;ratioP1;P1;durP2;ratioP2;P2;SDS_P1;SDS_P2;PMS_P1;PMS_P2;Temp;Humidity;BMP_temperature;BMP_pressure;BME280_temperature;BME280_humidity;BME280_pressure;Samples;Min_cycle;Max_cycle;Signal;HPM_P1;HPM_P2
2023/12/29 00:00:03;;;;;;;6.77;2.33;;;12.80;87.20;;;14.39;55.72;100349.84;3081600;46;20455;-66
2023/12/29 00:02:31;;;;;;;8.00;2.50;;;12.80;87.20;;;14.40;55.88;100331.09;3081541;46;20455;-66
2023/12/29 00:04:59;;;;;;;11.40;2.73;;;12.80;87.10;;;14.43;55.63;100335.19;3081512;46;20554;-66
2023/12/29 00:07:28;;;;;;;7.60;2.57;;;12.90;87.20;;;14.37;56.10;100336.00;3080932;46;20467;-66
2023/12/29 00:09:56;;;;;;;10.50;2.40;;;12.90;87.20;;;14.28;56.18;100330.09;3081183;46;20456;-66
2023/12/29 00:12:25;;;;;;;8.27;2.17;;;12.90;87.20;;;14.30;55.98;100330.72;3081258;46;20520;-66
2023/12/29 00:14:53;;;;;;;8.33;2.57;;;12.80;87.10;;;14.24;56.30;100334.16;3081526;46;20426;-66
2023/12/29 00:17:22;;;;;;;6.73;2.73;;;12.90;87.30;;;14.27;56.63;100331.09;3080747;46;21114;-66
2023/12/29 00:19:50;;;;;;;5.63;2.10;;;12.90;87.40;;;14.27;56.78;100331.09;3081267;46;20455;-66
2023/12/29 00:22:19;;;;;;;5.27;1.83;;;12.90;87.70;;;14.28;56.56;100332.75;3081004;46;20428;-66
2023/12/29 00:24:47;;;;;;;7.07;2.50;;;12.90;87.70;;;14.27;56.68;100326.63;3080976;46;20456;-66
2023/12/29 00:27:16;;;;;;;4.40;2.57;;;12.90;87.80;;;14.32;56.74;100311.97;3080523;46;20548;-67
2023/12/29 00:29:44;;;;;;;7.63;2.33;;;12.80;88.00;;;14.27;56.95;100325.81;3081406;46;20427;-65
2023/12/29 00:32:13;;;;;;;7.20;2.20;;;12.80;88.20;;;14.32;56.77;100314.63;3081176;46;20431;-66
2023/12/29 00:34:41;;;;;;;7.20;2.87;;;12.80;88.40;;;14.33;57.03;100318.91;3081197;46;20431;-65
2023/12/29 00:37:10;;;;;;;5.03;2.27;;;12.80;88.70;;;14.34;57.19;100313.38;3080931;46;20443;-66
2023/12/29 00:39:38;;;;;;;7.67;2.33;;;12.80;88.80;;;14.27;57.51;100326.63;3080947;46;20440;-66
2023/12/29 00:42:08;;;;;;;4.40;2.00;;;12.80;89.00;;;14.28;57.38;100335.38;3080650;46;21046;-64
2023/12/29 00:44:36;;;;;;;6.57;2.13;;;12.80;89.20;;;14.19;57.74;100312.81;3080230;46;21124;-64
2023/12/29 00:47:04;;;;;;;5.27;2.07;;;12.80;89.40;;;14.18;58.01;100321.78;3080600;46;20593;-66
2023/12/29 00:49:33;;;;;;;5.97;2.30;;;12.80;89.50;;;14.21;57.72;100326.66;3080574;46;20456;-66
2023/12/29 00:52:02;;;;;;;5.30;1.93;;;12.70;89.60;;;14.23;57.61;100311.38;3081255;46;20439;-66
2023/12/29 00:54:31;;;;;;;7.03;2.33;;;12.70;89.70;;;14.16;58.07;100314.06;3080842;46;20431;-66
2023/12/29 00:56:59;;;;;;;6.37;2.10;;;12.70;90.10;;;14.19;58.02;100315.47;3080421;46;21111;-66
2023/12/29 00:59:27;;;;;;;8.20;2.30;;;12.70;90.10;;;14.09;58.32;100307.16;3080824;46;20496;-66
2023/12/29 01:01:56;;;;;;;4.47;1.93;;;12.70;90.10;;;14.13;58.62;100316.28;3080776;46;20429;-67
2023/12/29 01:04:24;;;;;;;7.03;2.40;;;12.60;90.20;;;14.14;58.57;100316.06;3080729;46;20431;-66
2023/12/29 01:06:54;;;;;;;7.60;1.93;;;12.60;90.20;;;14.12;58.65;100312.03;3080577;46;20602;-66
2023/12/29 01:09:22;;;;;;;8.60;2.30;;;12.60;90.30;;;14.11;58.39;100305.09;3080612;46;20491;-67
2023/12/29 01:11:51;;;;;;;9.13;2.13;;;12.60;90.30;;;14.08;58.68;100305.50;3082003;46;20432;-65
2023/12/29 01:14:19;;;;;;;9.73;2.10;;;12.60;90.40;;;14.02;59.25;100309.81;3083263;46;20426;-66
2023/12/29 01:16:48;;;;;;;5.90;2.07;;;12.60;90.60;;;14.03;59.01;100308.78;3083045;46;20431;-65
2023/12/29 01:19:16;;;;;;;6.27;2.00;;;12.60;90.60;;;14.08;59.03;100316.09;3083029;46;20529;-67
2023/12/29 01:21:44;;;;;;;5.40;1.80;;;12.60;90.60;;;14.10;58.85;100308.75;3083250;46;20577;-67
2023/12/29 01:24:13;;;;;;;6.43;2.00;;;12.60;90.70;;;14.12;59.48;100306.72;3082757;46;20519;-66
2023/12/29 01:26:43;;;;;;;5.30;1.80;;;12.60;91.00;;;14.10;59.39;100308.75;3082748;46;21004;-66
2023/12/29 01:29:11;;;;;;;6.03;1.73;;;12.60;91.10;;;14.08;59.69;100308.16;3082479;46;21022;-66
2023/12/29 01:31:40;;;;;;;9.00;2.00;;;12.60;91.30;;;14.06;59.95;100294.31;3083216;46;20459;-66
2023/12/29 01:34:09;;;;;;;6.50;1.97;;;12.50;91.30;;;14.05;59.97;100311.19;3083024;46;20573;-66
2023/12/29 01:36:38;;;;;;;5.37;1.80;;;12.50;91.30;;;14.05;60.27;100295.31;3082457;46;20953;-66
2023/12/29 01:39:06;;;;;;;3.90;2.10;;;12.50;91.50;;;14.02;60.22;100301.06;3082856;46;21087;-66
2023/12/29 01:41:34;;;;;;;8.13;2.23;;;12.50;91.50;;;14.02;60.34;100306.34;3082671;46;21084;-64
2023/12/29 01:44:03;;;;;;;9.10;2.27;;;12.50;91.60;;;13.98;60.29;100294.53;3082343;46;20569;-66
2023/12/29 01:46:35;;;;;;;6.50;2.00;;;12.50;91.60;;;13.96;60.16;100301.88;3082776;46;21172;-66
2023/12/29 01:49:03;;;;;;;8.40;2.47;;;12.40;91.60;;;13.92;60.91;100304.13;3081750;46;20432;-66
2023/12/29 01:51:32;;;;;;;6.63;1.90;;;12.40;91.90;;;13.82;61.51;100301.09;3083007;46;21071;-66
2023/12/29 01:54:01;;;;;;;6.33;1.97;;;12.40;92.10;;;13.71;62.17;100300.91;3082650;46;20580;-65
2023/12/29 01:56:30;;;;;;;5.77;2.10;;;12.30;92.20;;;13.61;62.18;100297.84;3082301;46;20423;-65
2023/12/29 01:58:59;;;;;;;6.33;1.80;;;12.30;92.50;;;13.50;62.91;100307.22;3082748;46;21039;-65
2023/12/29 02:01:41;;;;;;;4.33;1.77;;;12.20;92.60;;;13.41;63.13;100292.56;3082674;46;20541;-66
2023/12/29 02:04:12;;;;;;;3.80;1.70;;;12.10;92.70;;;13.36;63.08;100287.91;3082378;46;20455;-65
2023/12/29 02:06:41;;;;;;;7.57;2.00;;;12.10;93.00;;;13.32;63.31;100278.75;3082393;46;20427;-66
2023/12/29 02:09:12;;;;;;;5.00;1.60;;;12.00;93.00;;;13.25;64.31;100270.00;3082127;46;21008;-66
2023/12/29 02:11:41;;;;;;;7.67;1.90;;;12.00;93.30;;;13.22;64.40;100272.25;3082234;46;20436;-65
2023/12/29 02:14:10;;;;;;;4.27;1.80;;;11.90;93.50;;;13.21;64.32;100270.63;3082059;46;20455;-65
2023/12/29 02:17:17;;;;;;;4.23;2.07;;;11.90;93.60;;;13.18;64.45;100261.28;3081858;46;20432;-65
2023/12/29 02:19:49;;;;;;;5.80;1.80;;;11.90;93.70;;;13.24;64.44;100263.09;3082615;46;20432;-65
2023/12/29 02:22:18;;;;;;;7.83;2.50;;;11.80;93.90;;;13.22;64.96;100257.19;3081716;46;21136;-66
2023/12/29 02:24:51;;;;;;;6.67;2.13;;;11.80;94.00;;;13.23;64.76;100237.69;3081557;46;20503;-66
2023/12/29 02:27:49;;;;;;;6.07;2.40;;;11.80;94.10;;;13.16;64.98;100244.81;3081888;46;20998;-63
2023/12/29 02:30:45;;;;;;;6.23;2.43;;;11.80;94.50;;;13.11;65.02;100249.06;3081816;46;20545;-66
2023/12/29 02:33:22;;;;;;;7.43;2.20;;;11.80;94.60;;;13.09;65.41;100240.53;3081444;46;20474;-66
2023/12/29 02:35:56;;;;;;;7.73;2.70;;;11.70;94.40;;;13.06;65.89;100223.25;3082293;46;20428;-64
2023/12/29 02:38:28;;;;;;;5.77;1.97;;;11.70;94.50;;;13.06;66.18;100240.94;3081743;46;21120;-66
2023/12/29 02:40:57;;;;;;;7.00;2.37;;;11.70;94.70;;;13.06;65.75;100251.50;3082078;46;20431;-65
2023/12/29 02:43:25;;;;;;;8.37;2.33;;;11.70;94.90;;;13.05;66.42;100236.66;3081404;46;20428;-66
2023/12/29 02:45:53;;;;;;;5.10;2.63;;;11.70;94.80;;;13.02;66.59;100240.50;3082424;46;20427;-66
2023/12/29 02:48:22;;;;;;;6.07;2.17;;;11.70;95.10;;;13.03;66.47;100220.97;3081269;46;20467;-66
2023/12/29 02:50:51;;;;;;;5.50;2.10;;;11.60;95.00;;;13.02;66.48;100210.63;3082377;46;21036;-66
2023/12/29 02:53:19;;;;;;;7.23;2.77;;;11.60;95.00;;;13.05;66.56;100199.66;3082595;46;20435;-66
2023/12/29 02:55:48;;;;;;;6.37;2.60;;;11.60;95.00;;;13.06;66.22;100198.66;3081539;46;20579;-66
2023/12/29 02:58:16;;;;;;;5.73;2.37;;;11.60;95.00;;;13.09;66.52;100199.09;3081514;46;20542;-66
2023/12/29 03:00:45;;;;;;;6.80;2.77;;;11.60;95.10;;;13.11;66.43;100191.75;3082192;46;20994;-65
2023/12/29 03:03:13;;;;;;;7.07;2.07;;;11.60;95.20;;;13.13;66.32;100183.63;3081919;46;20457;-66
2023/12/29 03:05:41;;;;;;;11.63;3.10;;;11.60;95.30;;;13.15;66.25;100171.81;3082191;46;20435;-65
2023/12/29 03:08:10;;;;;;;7.20;2.10;;;11.60;95.30;;;13.18;66.70;100184.63;3081748;46;20521;-66
2023/12/29 03:10:38;;;;;;;8.33;2.43;;;11.60;95.40;;;13.20;66.57;100185.25;3081623;46;21104;-66
2023/12/29 03:13:06;;;;;;;8.90;2.23;;;11.60;95.40;;;13.21;66.57;100197.44;3080820;46;20452;-65
2023/12/29 03:15:35;;;;;;;5.10;2.17;;;11.60;95.50;;;13.10;67.69;100190.13;3081983;46;20520;-66
2023/12/29 03:18:04;;;;;;;8.27;2.40;;;11.70;95.90;;;12.97;68.49;100179.53;3081247;46;20441;-65
2023/12/29 03:20:33;;;;;;;7.57;2.10;;;11.60;96.40;;;12.85;68.80;100173.25;3082028;46;20582;-64
2023/12/29 03:23:01;;;;;;;6.20;2.50;;;11.60;96.20;;;12.80;68.88;100179.13;3081932;46;20469;-65
2023/12/29 03:25:30;;;;;;;9.40;2.67;;;11.50;96.50;;;12.78;68.64;100185.63;3081508;46;20481;-66
2023/12/29 03:27:58;;;;;;;5.67;1.83;;;11.40;96.90;;;12.65;70.24;100169.75;3081464;46;20932;-66
2023/12/29 03:30:27;;;;;;;6.83;2.20;;;11.30;97.10;;;12.38;73.06;100162.84;3081778;46;20427;-66
2023/12/29 03:32:56;;;;;;;8.47;2.40;;;11.20;97.70;;;12.38;72.08;100162.84;3081226;46;20428;-66
2023/12/29 03:35:24;;;;;;;7.07;2.60;;;11.20;97.50;;;12.43;71.67;100181.53;3081530;46;20436;-63
2023/12/29 03:37:53;;;;;;;8.87;2.57;;;11.20;97.60;;;12.37;72.00;100175.22;3081066;46;20506;-65
2023/12/29 03:40:21;;;;;;;6.77;2.40;;;11.10;97.70;;;12.42;71.55;100158.78;3081754;46;20582;-65
2023/12/29 03:42:50;;;;;;;9.53;3.00;;;11.10;97.60;;;12.45;71.53;100153.09;3081492;46;20438;-66
2023/12/29 03:45:18;;;;;;;7.00;2.03;;;11.10;97.70;;;12.49;71.09;100175.44;3081684;46;20569;-66
2023/12/29 03:47:46;;;;;;;6.23;2.03;;;11.10;97.70;;;12.52;71.12;100207.53;3080836;46;21103;-66
2023/12/29 03:50:15;;;;;;;6.70;2.40;;;11.00;97.70;;;12.60;70.88;100277.81;3081116;46;20427;-65
2023/12/29 03:52:43;;;;;;;2.13;1.40;;;11.10;98.00;;;12.61;70.13;100280.25;3081300;46;21021;-64
2023/12/29 03:55:12;;;;;;;3.77;1.20;;;11.10;96.80;;;12.49;68.01;100238.78;3081597;46;20427;-64
2023/12/29 03:57:43;;;;;;;2.97;1.10;;;11.00;95.10;;;12.30;66.39;100228.97;3081037;46;20440;-62
2023/12/29 04:00:14;;;;;;;3.40;0.97;;;10.90;93.20;;;12.01;65.30;100230.91;3081381;46;20431;-65
2023/12/29 04:02:43;;;;;;;2.27;1.17;;;10.70;92.80;;;11.80;64.65;100222.28;3081573;46;21009;-66
2023/12/29 04:05:11;;;;;;;2.13;1.30;;;10.50;92.60;;;11.63;65.25;100200.66;3081018;46;20516;-66
2023/12/29 04:07:40;;;;;;;2.97;1.20;;;10.30;93.20;;;11.54;65.38;100207.09;3080730;46;21117;-64
2023/12/29 04:10:09;;;;;;;4.53;1.47;;;10.20;93.40;;;11.43;65.33;100203.16;3081362;46;20565;-66
2023/12/29 04:12:37;;;;;;;4.23;1.00;;;10.10;93.40;;;11.37;65.54;100206.59;3081345;46;20481;-66
2023/12/29 04:15:07;;;;;;;4.63;1.23;;;10.00;93.60;;;11.33;65.60;100212.44;3081547;46;20453;-66
2023/12/29 04:17:35;;;;;;;6.13;1.47;;;9.90;94.30;;;11.28;65.49;100196.38;3080742;46;20512;-64
2023/12/29 04:20:05;;;;;;;3.07;1.13;;;9.80;94.30;;;11.25;65.94;100181.78;3081300;46;20427;-64
2023/12/29 04:22:34;;;;;;;5.43;1.83;;;9.80;94.70;;;11.25;65.83;100189.69;3081061;46;20427;-66
2023/12/29 04:25:02;;;;;;;4.97;1.13;;;9.80;94.80;;;11.24;65.83;100189.88;3081258;46;20924;-66
2023/12/29 04:27:31;;;;;;;1.83;1.03;;;9.70;94.70;;;11.25;66.18;100175.69;3080722;46;20450;-65
2023/12/29 04:29:59;;;;;;;5.27;1.33;;;9.70;95.00;;;11.27;66.09;100169.22;3081261;46;20454;-66
2023/12/29 04:32:28;;;;;;;6.93;1.90;;;9.70;95.20;;;11.28;66.24;100191.13;3080965;46;20445;-65
2023/12/29 04:34:56;;;;;;;3.93;1.37;;;9.70;95.10;;;11.28;66.01;100170.03;3081134;46;20438;-66
2023/12/29 04:37:24;;;;;;;3.37;1.97;;;9.60;95.10;;;11.27;66.20;100178.94;3080761;46;20474;-65
2023/12/29 04:39:53;;;;;;;5.77;1.80;;;9.70;95.20;;;11.28;66.34;100196.38;3081116;46;20453;-66
2023/12/29 04:42:21;;;;;;;5.57;1.53;;;9.70;95.30;;;11.27;66.08;100174.50;3080802;46;20432;-66
2023/12/29 04:44:49;;;;;;;4.93;1.90;;;9.70;95.30;;;11.22;66.48;100176.88;3082217;46;20513;-66
2023/12/29 04:47:18;;;;;;;7.50;2.67;;;9.70;95.50;;;11.20;66.53;100189.44;3083100;46;21131;-67
2023/12/29 04:49:46;;;;;;;2.67;1.63;;;9.70;95.40;;;11.23;66.92;100168.00;3083186;46;20423;-66
2023/12/29 04:52:15;;;;;;;5.90;2.07;;;9.70;95.70;;;11.36;68.12;100183.09;3083436;46;20567;-64
2023/12/29 04:54:43;;;;;;;4.60;1.87;;;9.70;96.90;;;11.58;68.69;100192.53;3083459;46;20427;-63
2023/12/29 04:57:12;;;;;;;7.87;2.30;;;9.90;97.30;;;11.82;68.89;100188.63;3082857;46;20716;-66
2023/12/29 04:59:40;;;;;;;7.07;2.30;;;10.00;97.00;;;12.03;69.00;100191.94;3083438;46;20492;-66
2023/12/29 05:02:08;;;;;;;8.53;2.30;;;10.20;97.00;;;12.21;68.51;100179.03;3083359;46;20459;-65
2023/12/29 05:04:38;;;;;;;4.90;2.47;;;10.40;96.90;;;12.38;68.22;100178.66;3083323;46;20428;-65
2023/12/29 05:07:09;;;;;;;5.07;1.93;;;10.60;96.70;;;12.54;67.95;100183.56;3082638;46;20452;-65
2023/12/29 05:09:37;;;;;;;5.20;2.27;;;10.80;96.50;;;12.68;67.70;100182.56;3083020;46;20431;-66
2023/12/29 05:12:06;;;;;;;9.27;2.87;;;10.90;96.30;;;12.78;67.58;100185.63;3083019;46;20442;-68
2023/12/29 05:14:35;;;;;;;4.87;2.00;;;11.00;96.10;;;12.89;66.97;100190.31;3083053;46;20453;-66
2023/12/29 05:17:03;;;;;;;6.57;2.00;;;11.10;95.80;;;12.98;66.63;100197.00;3081851;46;20468;-65
2023/12/29 05:19:32;;;;;;;5.63;2.03;;;11.20;95.50;;;13.08;66.14;100200.09;3083079;46;20427;-66
2023/12/29 05:22:00;;;;;;;6.83;2.10;;;11.30;95.30;;;13.14;66.04;100191.34;3082649;46;22661;-65
2023/12/29 05:24:29;;;;;;;6.97;2.40;;;11.40;95.20;;;13.22;65.64;100193.78;3082728;46;20455;-69
2023/12/29 05:26:58;;;;;;;6.40;2.10;;;11.50;95.20;;;13.25;65.80;100195.19;3082421;46;20450;-66
2023/12/29 05:29:26;;;;;;;8.33;2.73;;;11.60;95.20;;;13.30;65.95;100196.22;3082854;46;20456;-66
2023/12/29 05:31:54;;;;;;;7.13;1.90;;;11.60;95.10;;;13.31;65.50;100192.53;3082984;46;20431;-65
2023/12/29 05:34:23;;;;;;;8.00;2.10;;;11.60;95.00;;;13.30;65.40;100185.66;3082860;46;20435;-66
2023/12/29 05:36:51;;;;;;;4.60;2.20;;;11.70;94.90;;;13.31;65.81;100184.59;3082196;46;20463;-66
2023/12/29 05:39:20;;;;;;;4.37;1.93;;;11.70;94.80;;;13.32;65.17;100190.72;3082696;46;21109;-66
2023/12/29 05:41:48;;;;;;;7.70;2.27;;;11.70;94.80;;;13.34;65.22;100191.31;3082306;46;20544;-66
2023/12/29 05:44:16;;;;;;;7.23;2.00;;;11.80;94.70;;;13.35;65.02;100193.78;3082458;46;20571;-66
2023/12/29 05:46:48;;;;;;;7.40;2.40;;;11.70;94.50;;;13.31;64.47;100197.81;3082442;46;20480;-65
2023/12/29 05:49:16;;;;;;;7.83;2.20;;;11.70;94.20;;;13.29;64.50;100199.03;3081893;46;20427;-66
2023/12/29 05:51:45;;;;;;;7.60;2.07;;;11.70;94.00;;;13.27;64.71;100206.38;3082758;46;20427;-66
2023/12/29 05:54:13;;;;;;;7.20;2.27;;;11.70;93.90;;;13.25;64.31;100219.81;3082491;46;20648;-64
2023/12/29 05:56:43;;;;;;;7.63;2.27;;;11.70;93.80;;;13.24;63.87;100218.16;3081934;46;20457;-66
2023/12/29 05:59:11;;;;;;;8.33;2.23;;;11.70;93.80;;;13.28;63.79;100227.34;3082552;46;20543;-66
2023/12/29 06:01:40;;;;;;;8.40;2.30;;;11.70;93.70;;;13.32;63.89;100225.06;3082878;46;20457;-66
2023/12/29 06:04:08;;;;;;;7.30;2.30;;;11.70;93.70;;;13.35;63.81;100225.50;3082532;46;20464;-66
2023/12/29 06:06:37;;;;;;;11.37;2.37;;;11.80;93.80;;;13.39;63.77;100221.41;3081939;46;20431;-66
2023/12/29 06:09:05;;;;;;;7.30;2.30;;;11.70;94.00;;;13.41;63.42;100242.34;3082162;46;20939;-66
2023/12/29 06:11:33;;;;;;;5.70;2.47;;;11.80;93.60;;;13.41;63.22;100239.69;3082300;46;20494;-65
2023/12/29 06:14:02;;;;;;;14.37;2.63;;;11.80;93.50;;;13.42;63.39;100258.03;3082532;46;20464;-66
2023/12/29 06:16:31;;;;;;;9.43;2.47;;;11.80;93.50;;;13.39;63.10;100258.41;3082077;46;21086;-67
2023/12/29 06:19:00;;;;;;;8.03;2.60;;;11.80;93.40;;;13.37;63.14;100255.16;3081965;46;21006;-66
2023/12/29 06:21:28;;;;;;;6.13;2.67;;;11.80;93.30;;;13.33;62.58;100269.00;3082300;46;21070;-66
2023/12/29 06:23:56;;;;;;;12.57;3.13;;;11.80;93.00;;;13.31;62.65;100245.41;3081905;46;21108;-66
2023/12/29 06:26:25;;;;;;;10.30;2.73;;;11.80;93.00;;;13.32;62.66;100236.47;3081698;46;20588;-66
2023/12/29 06:28:53;;;;;;;10.17;3.03;;;11.80;92.90;;;13.30;62.60;100233.22;3081821;46;20469;-65
2023/12/29 06:31:22;;;;;;;10.50;2.57;;;11.80;92.90;;;13.29;62.08;100236.88;3082218;46;20429;-66
2023/12/29 06:33:50;;;;;;;11.17;3.40;;;11.80;92.60;;;13.30;62.11;100242.97;3082021;46;20456;-66
2023/12/29 06:36:19;;;;;;;16.90;3.07;;;11.80;92.40;;;13.30;61.89;100237.69;3081937;46;20452;-66
2023/12/29 06:38:48;;;;;;;14.27;3.10;;;11.70;92.20;;;13.29;61.52;100226.28;3081622;46;20558;-66
2023/12/29 06:41:17;;;;;;;9.03;2.67;;;11.70;92.30;;;13.30;61.39;100237.69;3081097;46;20431;-65
2023/12/29 06:43:45;;;;;;;13.03;3.20;;;11.70;92.10;;;13.31;61.24;100237.47;3082246;46;20502;-67
2023/12/29 06:46:14;;;;;;;10.10;2.53;;;11.70;92.00;;;13.32;61.00;100239.09;3081886;46;20456;-66
2023/12/29 06:48:42;;;;;;;7.03;2.63;;;11.70;91.80;;;13.31;60.76;100237.47;3081148;46;20459;-66
2023/12/29 06:51:18;;;;;;;9.70;2.70;;;11.70;91.90;;;13.31;60.56;100244.59;3082262;46;20428;-65
2023/12/29 06:53:49;;;;;;;11.43;2.93;;;11.70;91.70;;;13.35;59.86;100241.34;3082215;46;20508;-65
2023/12/29 06:56:18;;;;;;;8.87;3.03;;;11.70;91.40;;;13.36;60.18;100242.97;3082211;46;21016;-66
2023/12/29 06:58:46;;;;;;;17.67;3.17;;;11.70;91.30;;;13.39;59.69;100241.75;3081268;46;20443;-66
2023/12/29 07:01:15;;;;;;;9.43;2.83;;;11.70;91.10;;;13.41;59.54;100245.00;3082018;46;20518;-66
2023/12/29 07:03:44;;;;;;;9.27;2.40;;;11.70;91.10;;;13.41;59.19;100242.34;3081958;46;20502;-67
2023/12/29 07:06:13;;;;;;;8.73;2.60;;;11.70;90.90;;;13.43;58.96;100243.75;3081823;46;20440;-64
2023/12/29 07:08:41;;;;;;;10.10;2.50;;;11.70;90.90;;;13.42;59.16;100236.88;3080826;46;21102;-65
2023/12/29 07:11:13;;;;;;;9.40;2.70;;;11.70;90.90;;;13.42;59.17;100242.16;3081724;46;20450;-66
2023/12/29 07:13:42;;;;;;;11.20;2.27;;;11.80;91.30;;;13.40;58.93;100249.47;3081107;46;20431;-65
2023/12/29 07:16:10;;;;;;;10.13;2.83;;;11.80;91.00;;;13.38;58.86;100248.84;3081879;46;20427;-66
2023/12/29 07:18:39;;;;;;;9.70;3.43;;;11.80;91.00;;;13.36;59.32;100244.81;3081114;46;20595;-66
2023/12/29 07:21:07;;;;;;;10.30;2.80;;;11.80;91.20;;;13.36;59.65;100237.66;3082028;46;20568;-65
2023/12/29 07:23:36;;;;;;;15.63;3.07;;;11.70;91.20;;;13.34;59.66;100245.00;3081400;46;20441;-66
2023/12/29 07:26:04;;;;;;;6.27;2.60;;;11.70;91.40;;;13.34;59.97;100247.63;3081581;46;20453;-65
2023/12/29 07:28:33;;;;;;;8.97;2.60;;;11.70;91.60;;;13.36;60.35;100258.03;3081171;46;20442;-66
2023/12/29 07:31:02;;;;;;;8.73;2.47;;;11.70;91.70;;;13.35;60.48;100251.09;3081686;46;20433;-65
2023/12/29 07:33:30;;;;;;;10.20;2.50;;;11.70;91.80;;;13.32;60.59;100254.97;3081213;46;21124;-66
2023/12/29 07:36:00;;;;;;;10.77;3.10;;;11.70;92.00;;;13.30;60.96;100262.28;3081741;46;21016;-66
2023/12/29 07:38:29;;;;;;;12.30;2.87;;;11.70;92.10;;;13.31;60.92;100240.13;3081623;46;20468;-65
2023/12/29 07:40:57;;;;;;;11.20;3.60;;;11.70;92.10;;;13.30;60.81;100227.13;3080387;46;20631;-65
2023/12/29 07:43:25;;;;;;;15.27;3.10;;;11.70;92.20;;;13.30;61.00;100243.78;3081761;46;20431;-65
2023/12/29 07:45:54;;;;;;;10.07;3.00;;;11.70;92.20;;;13.28;61.04;100245.00;3081530;46;21088;-66
2023/12/29 07:48:22;;;;;;;12.20;3.03;;;11.70;92.30;;;13.17;61.46;100245.63;3080665;46;20439;-67
2023/12/29 07:50:51;;;;;;;10.43;2.87;;;11.70;92.30;;;13.12;61.56;100240.94;3081552;46;20917;-66
2023/12/29 07:53:19;;;;;;;8.33;3.33;;;11.70;92.30;;;13.15;61.53;100248.47;3081197;46;20515;-66
2023/12/29 07:55:50;;;;;;;13.03;3.67;;;11.70;92.30;;;13.17;61.27;100250.91;3081623;46;20465;-66
2023/12/29 07:58:18;;;;;;;9.40;2.90;;;11.70;92.30;;;13.19;61.67;100238.31;3081031;46;20513;-66
2023/12/29 08:00:46;;;;;;;12.60;3.10;;;11.60;92.30;;;13.22;61.47;100216.75;3081402;46;20503;-65
2023/12/29 08:03:15;;;;;;;10.43;3.00;;;11.60;92.30;;;13.25;61.23;100246.22;3081601;46;20515;-64
2023/12/29 08:05:45;;;;;;;20.00;3.37;;;11.60;92.30;;;13.26;61.39;100226.72;3081589;46;20439;-66
2023/12/29 08:08:14;;;;;;;8.17;2.80;;;11.60;92.30;;;13.23;61.32;100227.13;3080739;46;20571;-62
2023/12/29 08:10:43;;;;;;;6.83;2.07;;;11.70;92.40;;;13.15;61.26;100208.81;3081344;46;20459;-66
2023/12/29 08:13:11;;;;;;;10.97;2.67;;;11.70;92.20;;;13.12;61.46;100248.84;3081594;46;20536;-66
2023/12/29 08:15:39;;;;;;;7.47;2.27;;;11.70;91.80;;;13.10;60.78;100232.41;3081071;46;20460;-65
2023/12/29 08:18:08;;;;;;;10.20;2.93;;;11.70;91.50;;;13.11;60.90;100236.69;3080117;46;20533;-66
2023/12/29 08:20:36;;;;;;;12.07;3.00;;;11.60;91.50;;;13.13;61.12;100245.22;3080962;46;20490;-65
2023/12/29 08:23:05;;;;;;;13.33;2.77;;;11.60;91.90;;;13.14;61.13;100249.50;3081488;46;21025;-64
2023/12/29 08:25:33;;;;;;;15.63;3.47;;;11.60;92.20;;;13.17;61.27;100254.34;3081001;46;20424;-66
2023/12/29 08:28:02;;;;;;;7.70;2.57;;;11.60;92.50;;;13.15;62.07;100248.47;3080663;46;21009;-63
2023/12/29 08:30:30;;;;;;;10.40;3.07;;;11.60;92.80;;;13.10;63.03;100242.97;3080253;46;21021;-66
2023/12/29 08:32:59;;;;;;;13.03;3.00;;;11.60;93.20;;;13.09;63.32;100241.34;3081076;46;20427;-64
2023/12/29 08:35:27;;;;;;;13.10;3.00;;;11.60;93.30;;;13.11;63.42;100238.50;3080697;46;20522;-64
2023/12/29 08:37:55;;;;;;;8.27;3.23;;;11.60;93.40;;;13.13;63.53;100233.81;3080420;46;20455;-65
2023/12/29 08:40:24;;;;;;;10.43;3.40;;;11.60;93.50;;;13.13;63.16;100237.28;3081078;46;20550;-66
2023/12/29 08:42:52;;;;;;;15.87;3.33;;;11.60;93.50;;;13.15;63.38;100239.72;3080904;46;20456;-62
2023/12/29 08:45:21;;;;;;;16.73;4.10;;;11.50;93.60;;;13.12;63.81;100243.56;3081155;46;20536;-66
2023/12/29 08:47:49;;;;;;;11.10;3.07;;;11.60;93.80;;;13.06;64.05;100244.41;3080552;46;20875;-65
2023/12/29 08:50:18;;;;;;;7.83;2.60;;;11.60;93.90;;;12.91;64.79;100243.72;3080790;46;21005;-66
2023/12/29 08:52:46;;;;;;;7.10;2.67;;;11.50;94.10;;;12.77;65.20;100247.38;3080876;46;20430;-66
2023/12/29 08:55:15;;;;;;;7.67;2.17;;;11.50;94.30;;;12.55;65.85;100267.03;3081178;46;20530;-66
2023/12/29 08:57:43;;;;;;;3.30;1.20;;;11.40;94.50;;;12.41;66.04;100263.53;3080540;46;20463;-65
2023/12/29 09:00:12;;;;;;;6.10;1.67;;;11.20;94.50;;;12.23;66.22;100272.00;3081085;46;20432;-66
2023/12/29 09:02:40;;;;;;;6.93;1.80;;;11.00;94.70;;;12.06;67.28;100264.59;3080597;46;21027;-64
2023/12/29 09:05:09;;;;;;;4.60;1.83;;;10.90;95.00;;;11.91;67.28;100251.53;3080733;46;20474;-65
2023/12/29 09:07:37;;;;;;;4.80;2.00;;;10.70;95.40;;;11.83;67.89;100249.09;3080359;46;21023;-66
2023/12/29 09:10:12;;;;;;;8.47;1.93;;;10.60;95.80;;;11.79;68.00;100260.22;3080600;46;20436;-66
2023/12/29 09:12:41;;;;;;;5.70;2.20;;;10.50;95.80;;;11.76;67.86;100269.31;3080762;46;20576;-64
2023/12/29 09:15:10;;;;;;;7.17;2.03;;;10.40;96.00;;;11.73;68.36;100272.34;3080083;46;20429;-65
2023/12/29 09:17:38;;;;;;;3.53;1.70;;;10.30;96.20;;;11.71;68.78;100284.91;3079511;46;20537;-65
2023/12/29 09:20:09;;;;;;;6.20;1.77;;;10.30;96.30;;;11.69;69.12;100286.91;3080595;46;20999;-66
2023/12/29 09:22:38;;;;;;;6.87;2.60;;;10.30;96.40;;;11.65;69.34;100288.25;3080253;46;20423;-66
2023/12/29 09:25:07;;;;;;;3.90;2.10;;;10.20;96.50;;;11.62;69.10;100280.75;3080215;46;20427;-66
2023/12/29 09:27:35;;;;;;;6.13;1.93;;;10.20;96.50;;;11.60;69.14;100301.19;3079454;46;20984;-64
2023/12/29 09:30:05;;;;;;;7.00;2.60;;;10.10;96.50;;;11.59;69.26;100291.69;3080439;46;20432;-66
2023/12/29 09:32:34;;;;;;;5.60;2.73;;;10.10;96.70;;;11.58;69.37;100288.22;3082561;46;20438;-64
2023/12/29 09:35:03;;;;;;;7.50;2.60;;;10.10;96.80;;;11.61;69.15;100284.38;3083045;46;20431;-66
2023/12/29 09:37:31;;;;;;;6.70;2.50;;;10.10;96.70;;;11.61;69.55;100284.38;3082874;46;20443;-65
2023/12/29 09:40:00;;;;;;;6.97;2.37;;;10.10;96.70;;;11.66;69.30;100278.53;3083105;46;20428;-65
2023/12/29 09:42:31;;;;;;;10.10;2.37;;;10.10;96.60;;;11.65;69.21;100259.25;3082257;46;20430;-65
2023/12/29 09:45:07;;;;;;;7.93;1.93;;;10.10;96.50;;;11.66;68.84;100263.53;3081943;46;20458;-65
2023/12/29 09:47:42;;;;;;;7.63;2.20;;;10.10;96.30;;;11.70;68.90;100270.09;3081025;46;20446;-62
2023/12/29 09:50:13;;;;;;;3.47;1.87;;;10.10;96.30;;;11.71;68.57;100273.53;3082174;46;20908;-65
2023/12/29 09:52:43;;;;;;;5.00;1.87;;;10.20;96.20;;;11.80;68.81;100265.28;3082531;46;20462;-66
2023/12/29 09:55:11;;;;;;;6.70;2.03;;;10.20;96.30;;;11.88;68.63;100267.78;3082849;46;20483;-66
2023/12/29 09:57:40;;;;;;;7.87;2.53;;;10.30;96.30;;;11.96;68.49;100258.88;3082022;46;20557;-63
2023/12/29 10:00:12;;;;;;;10.17;2.40;;;10.30;96.30;;;12.01;68.21;100273.09;3082739;46;20427;-65
2023/12/29 10:02:41;;;;;;;12.03;2.47;;;10.40;96.30;;;12.10;68.30;100265.84;3082080;46;20510;-66
2023/12/29 10:05:09;;;;;;;8.67;2.43;;;10.50;96.30;;;12.19;68.31;100262.81;3081570;46;20440;-66
2023/12/29 10:07:42;;;;;;;10.33;2.60;;;10.50;96.30;;;12.27;68.16;100256.56;3081914;46;20443;-66
2023/12/29 10:10:18;;;;;;;6.93;2.20;;;10.60;96.30;;;12.34;67.99;100256.63;3082063;46;21000;-66
2023/12/29 10:12:48;;;;;;;12.77;3.53;;;10.60;96.20;;;12.39;67.32;100254.19;3081679;46;21026;-65
2023/12/29 10:15:44;;;;;;;7.40;2.50;;;10.70;96.00;;;12.36;67.26;100250.09;3081665;46;20922;-66
2023/12/29 10:18:32;;;;;;;9.50;3.00;;;10.70;95.80;;;12.29;67.08;100261.69;3081649;46;21094;-66
2023/12/29 10:21:35;;;;;;;7.47;2.60;;;10.80;95.50;;;12.29;67.13;100270.38;3082521;46;20489;-66